createdAt,value
2018-04-22T00:56:38.405Z,14.80
2018-04-22T00:59:06.007Z,18.37
2018-04-22T01:01:33.943Z,15.83
2018-04-22T01:04:01.566Z,14.90
2018-04-22T01:06:29.204Z,16.20
2018-04-22T01:08:56.826Z,15.37
2018-04-22T01:11:24.436Z,14.93
2018-04-22T01:13:52.244Z,15.63
2018-04-22T01:16:19.848Z,16.03
2018-04-22T01:18:47.622Z,16.70
2018-04-22T01:21:15.240Z,17.40
2018-04-22T01:23:44.429Z,13.93
2018-04-22T01:26:12.314Z,14.93
2018-04-22T01:28:39.961Z,15.90
2018-04-22T01:31:07.564Z,14.20
2018-04-22T01:33:35.267Z,14.67
2018-04-22T01:36:02.889Z,14.17
2018-04-22T01:38:30.553Z,15.00
2018-04-22T01:40:58.161Z,13.90
2018-04-22T01:43:25.869Z,14.07
2018-04-22T01:45:53.492Z,19.43
2018-04-22T01:48:21.165Z,13.70
2018-04-22T01:50:48.777Z,14.30
2018-04-22T01:53:16.399Z,15.40
2018-04-22T01:55:44.034Z,16.47
2018-04-22T01:58:11.773Z,16.80
2018-04-22T02:00:39.502Z,14.13
2018-04-22T02:03:07.113Z,15.57
2018-04-22T02:05:34.753Z,14.00
2018-04-22T02:08:02.389Z,14.60
2018-04-22T02:10:30.127Z,15.33
2018-04-22T02:12:57.760Z,14.03
2018-04-22T02:15:25.426Z,14.30
2018-04-22T02:17:53.077Z,14.37
2018-04-22T02:20:20.736Z,14.40
2018-04-22T02:22:48.397Z,15.60
2018-04-22T02:25:16.069Z,15.80
2018-04-22T02:27:43.677Z,15.03
2018-04-22T02:30:11.349Z,14.67
2018-04-22T02:32:38.978Z,14.80
2018-04-22T02:35:06.624Z,16.03
2018-04-22T02:37:34.421Z,14.63
2018-04-22T02:40:02.101Z,14.77
2018-04-22T02:42:29.757Z,13.90
2018-04-22T02:44:57.389Z,14.07
2018-04-22T02:47:25.081Z,14.93
2018-04-22T02:49:52.701Z,14.60
2018-04-22T02:52:20.368Z,14.47
2018-04-22T02:54:47.965Z,13.90
2018-04-22T02:57:15.608Z,13.80
2018-04-22T02:59:43.256Z,15.63
2018-04-22T03:02:10.906Z,14.30
2018-04-22T03:04:38.516Z,14.60
2018-04-22T03:07:06.209Z,15.23
2018-04-22T03:09:33.827Z,14.47
2018-04-22T03:12:01.537Z,15.03
2018-04-22T03:14:29.139Z,14.87
2018-04-22T03:16:56.836Z,15.50
2018-04-22T03:19:24.470Z,16.47
2018-04-22T03:21:52.142Z,17.60
2018-04-22T03:24:19.896Z,14.53
2018-04-22T03:26:47.530Z,15.03
2018-04-22T03:29:15.205Z,16.30
2018-04-22T03:31:42.810Z,15.60
2018-04-22T03:34:10.441Z,16.17
2018-04-22T03:36:38.060Z,16.10
2018-04-22T03:39:06.495Z,14.90
2018-04-22T03:41:34.096Z,14.50
2018-04-22T03:44:01.725Z,15.97
2018-04-22T03:46:29.324Z,16.07
2018-04-22T03:48:56.965Z,17.90
2018-04-22T03:51:24.559Z,15.07
2018-04-22T03:53:52.426Z,18.67
2018-04-22T03:56:20.024Z,16.80
2018-04-22T03:58:47.652Z,16.20
2018-04-22T04:01:15.262Z,17.37
2018-04-22T04:03:42.933Z,17.20
2018-04-22T04:06:10.540Z,15.20
2018-04-22T04:08:38.169Z,20.80
2018-04-22T04:11:05.925Z,16.20
2018-04-22T04:13:33.584Z,16.40
2018-04-22T04:16:01.184Z,18.17
2018-04-22T04:21:48.925Z,17.23
2018-04-22T04:27:44.778Z,16.33
2018-04-22T04:30:12.453Z,16.37
2018-04-22T04:32:40.052Z,17.40
2018-04-22T04:35:07.693Z,14.23
2018-04-22T04:37:35.277Z,17.63
2018-04-22T04:40:02.953Z,13.90
2018-04-22T04:42:30.594Z,16.57
2018-04-22T04:44:58.194Z,14.97
2018-04-22T04:47:25.840Z,15.80
2018-04-22T04:49:53.444Z,17.80
2018-04-22T04:52:21.085Z,16.70
2018-04-22T04:54:48.700Z,17.27
2018-04-22T04:57:16.331Z,16.57
2018-04-22T04:59:44.021Z,18.83
2018-04-22T05:02:11.655Z,15.50
2018-04-22T05:04:39.294Z,15.50
2018-04-22T05:07:07.017Z,14.50
2018-04-22T05:09:34.621Z,16.83
2018-04-22T05:12:02.280Z,17.07
2018-04-22T05:14:29.936Z,18.43
2018-04-22T05:16:57.531Z,17.93
2018-04-22T05:19:25.157Z,18.27
2018-04-22T05:21:52.754Z,20.53
2018-04-22T05:24:20.398Z,17.87
2018-04-22T05:26:47.988Z,18.87
2018-04-22T05:29:15.625Z,18.33
2018-04-22T05:31:43.225Z,19.63
2018-04-22T05:34:10.867Z,18.20
2018-04-22T05:36:38.514Z,16.00
2018-04-22T05:39:06.156Z,18.47
2018-04-22T05:41:33.804Z,17.83
2018-04-22T05:44:01.433Z,17.53
2018-04-22T05:46:29.188Z,18.37
2018-04-22T05:48:56.814Z,19.10
2018-04-22T05:51:24.412Z,18.03
2018-04-22T05:53:52.517Z,20.37
2018-04-22T05:56:20.155Z,17.83
2018-04-22T05:58:47.749Z,18.47
2018-04-22T06:01:15.393Z,18.47
2018-04-22T06:03:42.996Z,20.07
2018-04-22T06:06:10.743Z,18.00
2018-04-22T06:08:38.370Z,18.40
2018-04-22T06:11:05.981Z,17.80
2018-04-22T06:13:33.582Z,19.30
2018-04-22T06:16:01.264Z,20.93
2018-04-22T06:18:28.902Z,18.83
2018-04-22T06:20:56.717Z,18.07
2018-04-22T06:23:24.324Z,17.73
2018-04-22T06:25:52.145Z,18.63
2018-04-22T06:28:22.298Z,18.77
2018-04-22T06:30:49.961Z,16.33
2018-04-22T06:33:17.565Z,17.07
2018-04-22T06:35:45.179Z,18.37
2018-04-22T06:38:12.839Z,19.60
2018-04-22T06:40:40.631Z,19.80
2018-04-22T06:43:08.274Z,18.97
2018-04-22T06:45:35.884Z,20.53
2018-04-22T06:48:03.522Z,18.53
2018-04-22T06:50:31.122Z,17.20
2018-04-22T06:52:58.771Z,19.00
2018-04-22T06:55:26.379Z,20.63
2018-04-22T06:57:54.005Z,18.17
2018-04-22T07:00:21.633Z,20.00
2018-04-22T07:02:49.278Z,20.20
2018-04-22T07:05:16.900Z,34.73
2018-04-22T07:07:44.645Z,18.93
2018-04-22T07:10:12.240Z,18.40
2018-04-22T07:12:39.920Z,19.77
2018-04-22T07:15:07.577Z,21.43
2018-04-22T07:17:35.228Z,19.37
2018-04-22T07:20:02.868Z,20.17
2018-04-22T07:22:30.473Z,19.30
2018-04-22T07:24:58.140Z,20.20
2018-04-22T07:27:25.756Z,19.23
2018-04-22T07:29:53.580Z,18.97
2018-04-22T07:32:21.208Z,19.43
2018-04-22T07:34:48.881Z,19.27
2018-04-22T07:37:16.569Z,17.50
2018-04-22T07:39:44.233Z,18.10
2018-04-22T07:42:11.853Z,18.17
2018-04-22T07:44:39.510Z,17.93
2018-04-22T07:47:07.126Z,17.63
2018-04-22T07:49:34.777Z,16.97
2018-04-22T07:52:02.402Z,17.93
2018-04-22T07:54:30.180Z,17.53
2018-04-22T07:56:57.821Z,17.47
2018-04-22T07:59:25.416Z,15.93
2018-04-22T08:01:53.086Z,18.43
2018-04-22T08:04:20.691Z,18.80
2018-04-22T08:06:48.396Z,17.33
2018-04-22T08:09:15.983Z,16.77
2018-04-22T08:11:43.709Z,16.50
2018-04-22T08:14:11.378Z,16.47
2018-04-22T08:16:39.043Z,17.43
2018-04-22T08:19:06.705Z,17.67
2018-04-22T08:21:34.377Z,17.60
2018-04-22T08:24:01.988Z,15.47
2018-04-22T08:26:29.821Z,16.60
2018-04-22T08:28:57.437Z,17.27
2018-04-22T08:31:25.081Z,15.83
2018-04-22T08:33:52.774Z,14.60
2018-04-22T08:36:20.385Z,16.10
2018-04-22T08:38:48.101Z,14.90
2018-04-22T08:41:15.691Z,16.73
2018-04-22T08:43:43.338Z,15.13
2018-04-22T08:46:10.941Z,14.60
2018-04-22T08:48:38.582Z,14.80
2018-04-22T08:51:06.185Z,14.60
2018-04-22T08:53:33.853Z,13.30
2018-04-22T08:56:01.469Z,15.43
2018-04-22T08:58:29.117Z,20.83
2018-04-22T09:00:56.734Z,19.50
2018-04-22T09:03:24.375Z,13.03
2018-04-22T09:05:51.981Z,12.83
2018-04-22T09:08:19.693Z,11.33
2018-04-22T09:10:47.389Z,15.40
2018-04-22T09:13:15.108Z,13.70
2018-04-22T09:15:42.725Z,11.47
2018-04-22T09:18:10.389Z,12.03
2018-04-22T09:20:38.025Z,12.60
2018-04-22T09:23:05.636Z,11.93
2018-04-22T09:25:33.302Z,15.23
2018-04-22T09:28:00.944Z,11.67
2018-04-22T09:30:28.592Z,11.97
2018-04-22T09:32:56.192Z,11.40
2018-04-22T09:35:23.841Z,13.57
2018-04-22T09:37:51.440Z,12.73
2018-04-22T09:40:19.069Z,15.73
2018-04-22T09:42:46.682Z,12.17
2018-04-22T09:45:14.304Z,11.53
2018-04-22T09:47:41.906Z,12.23
2018-04-22T09:50:09.613Z,13.53
2018-04-22T09:52:37.214Z,11.10
2018-04-22T09:55:04.829Z,11.43
2018-04-22T09:57:32.501Z,12.90
2018-04-22T10:00:00.098Z,12.77
2018-04-22T10:02:33.494Z,11.43
2018-04-22T10:05:06.531Z,10.20
2018-04-22T10:07:34.237Z,10.30
2018-04-22T10:10:01.873Z,11.00
2018-04-22T10:12:29.533Z,11.70
2018-04-22T10:14:57.129Z,15.17
2018-04-22T10:17:24.761Z,10.57
2018-04-22T10:19:52.489Z,12.27
2018-04-22T10:22:20.129Z,9.80
2018-04-22T10:24:47.737Z,10.10
2018-04-22T10:27:15.381Z,10.37
2018-04-22T10:29:42.989Z,10.70
2018-04-22T10:32:10.642Z,9.00
2018-04-22T10:34:38.280Z,9.20
2018-04-22T10:37:05.880Z,9.33
2018-04-22T10:39:33.469Z,10.27
2018-04-22T10:42:01.122Z,9.03
2018-04-22T10:44:28.733Z,16.80
2018-04-22T10:46:56.383Z,7.63
2018-04-22T10:49:24.023Z,9.40
2018-04-22T10:51:51.630Z,9.80
2018-04-22T10:54:19.265Z,9.47
2018-04-22T10:56:46.870Z,10.57
2018-04-22T10:59:14.588Z,12.80
2018-04-22T11:01:42.204Z,14.00
2018-04-22T11:04:09.844Z,9.97
2018-04-22T11:06:37.439Z,8.97
2018-04-22T11:09:05.898Z,8.50
2018-04-22T11:11:33.636Z,8.80
2018-04-22T11:14:01.309Z,11.23
2018-04-22T11:16:28.920Z,8.43
2018-04-22T11:18:56.677Z,9.60
2018-04-22T11:21:24.326Z,9.20
2018-04-22T11:23:52.001Z,8.90
2018-04-22T11:26:19.633Z,8.10
2018-04-22T11:28:47.262Z,8.93
2018-04-22T11:31:14.930Z,8.17
2018-04-22T11:33:42.549Z,8.50
2018-04-22T11:36:10.212Z,8.67
2018-04-22T11:38:40.236Z,7.77
2018-04-22T11:41:08.054Z,8.73
2018-04-22T11:43:36.215Z,8.87
2018-04-22T11:46:03.857Z,9.13
2018-04-22T11:48:31.484Z,8.50
2018-04-22T11:50:59.128Z,6.87
2018-04-22T11:53:26.751Z,7.57
2018-04-22T11:55:54.386Z,10.57
2018-04-22T11:58:21.988Z,7.77
2018-04-22T12:00:49.693Z,6.87
2018-04-22T12:03:17.415Z,7.30
2018-04-22T12:05:45.179Z,8.00
2018-04-22T12:08:12.788Z,7.93
2018-04-22T12:10:40.411Z,8.27
2018-04-22T12:13:07.985Z,8.37
2018-04-22T12:15:35.636Z,6.73
2018-04-22T12:18:03.256Z,6.70
2018-04-22T12:20:30.869Z,6.23
2018-04-22T12:22:58.666Z,7.63
2018-04-22T12:25:30.681Z,7.37
2018-04-22T12:27:58.324Z,7.43
2018-04-22T12:30:25.932Z,8.43
2018-04-22T12:32:53.635Z,6.50
2018-04-22T12:35:21.237Z,6.47
2018-04-22T12:37:48.893Z,7.57
2018-04-22T12:40:16.504Z,15.40
2018-04-22T12:42:44.129Z,8.00
2018-04-22T12:45:11.743Z,7.83
2018-04-22T12:47:39.562Z,7.27
2018-04-22T12:50:07.193Z,6.70
2018-04-22T12:52:34.833Z,8.97
2018-04-22T12:55:02.520Z,9.07
2018-04-22T12:57:30.173Z,6.60
2018-04-22T12:59:57.777Z,28.23
2018-04-22T13:02:25.429Z,15.30
2018-04-22T13:04:53.028Z,6.93
2018-04-22T13:07:20.620Z,10.70
2018-04-22T13:09:48.345Z,6.67
2018-04-22T13:12:16.136Z,8.70
2018-04-22T13:14:43.823Z,5.33
2018-04-22T13:17:11.658Z,7.30
2018-04-22T13:19:39.376Z,9.77
2018-04-22T13:22:06.952Z,8.17
2018-04-22T13:24:34.572Z,6.90
2018-04-22T13:27:02.274Z,4.63
2018-04-22T13:29:29.897Z,5.90
2018-04-22T13:31:57.509Z,6.30
2018-04-22T13:34:25.180Z,6.70
2018-04-22T13:36:52.802Z,7.17
2018-04-22T13:39:20.481Z,7.97
2018-04-22T13:41:48.085Z,9.47
2018-04-22T13:44:15.748Z,8.50
2018-04-22T13:46:43.436Z,9.13
2018-04-22T13:49:11.079Z,7.37
2018-04-22T13:51:38.686Z,7.70
2018-04-22T13:54:06.320Z,7.03
2018-04-22T13:56:33.924Z,9.00
2018-04-22T13:59:01.558Z,9.73
2018-04-22T14:01:29.174Z,9.43
2018-04-22T14:03:56.782Z,14.70
2018-04-22T14:06:24.440Z,11.97
2018-04-22T14:08:52.046Z,10.80
2018-04-22T14:11:19.687Z,9.57
2018-04-22T14:13:47.406Z,10.63
2018-04-22T14:16:15.108Z,10.83
2018-04-22T14:18:42.705Z,11.43
2018-04-22T14:21:10.361Z,8.90
2018-04-22T14:23:38.009Z,12.30
2018-04-22T14:26:05.688Z,8.07
2018-04-22T14:28:33.331Z,9.00
2018-04-22T14:31:00.978Z,11.03
2018-04-22T14:33:28.634Z,7.60
2018-04-22T14:35:56.285Z,9.40
2018-04-22T14:38:23.927Z,8.77
2018-04-22T14:40:51.584Z,10.63
2018-04-22T14:43:19.199Z,8.23
2018-04-22T14:45:58.411Z,7.47
2018-04-22T14:48:26.210Z,8.17
2018-04-22T14:50:53.873Z,13.00
2018-04-22T14:53:21.469Z,9.30
2018-04-22T14:55:49.058Z,9.23
2018-04-22T14:58:16.753Z,8.67
2018-04-22T15:00:44.377Z,8.60
2018-04-22T15:03:12.114Z,9.17
2018-04-22T15:05:39.712Z,10.73
2018-04-22T15:08:07.362Z,8.97
2018-04-22T15:10:34.993Z,9.50
2018-04-22T15:13:02.614Z,9.77
2018-04-22T15:15:30.225Z,9.20
2018-04-22T15:17:57.896Z,10.10
2018-04-22T15:20:25.516Z,10.53
2018-04-22T15:22:53.164Z,11.40
2018-04-22T15:25:20.778Z,15.77
2018-04-22T15:27:48.705Z,11.70
2018-04-22T15:30:16.292Z,12.70
2018-04-22T15:32:43.912Z,13.40
2018-04-22T15:35:11.550Z,10.87
2018-04-22T15:37:39.168Z,9.27
2018-04-22T15:40:06.840Z,5.40
2018-04-22T15:42:34.470Z,6.07
2018-04-22T15:45:02.159Z,5.40
2018-04-22T15:47:29.753Z,5.43
2018-04-22T15:49:57.509Z,7.50
2018-04-22T15:52:25.164Z,7.03
2018-04-22T15:54:52.820Z,8.00
2018-04-22T15:57:20.428Z,8.13
2018-04-22T15:59:48.152Z,7.60
2018-04-22T16:02:15.772Z,7.40
2018-04-22T16:04:43.413Z,6.47
2018-04-22T16:07:11.038Z,10.97
2018-04-22T16:09:38.696Z,8.30
2018-04-22T16:12:06.432Z,7.37
2018-04-22T16:14:34.148Z,8.93
2018-04-22T16:17:01.664Z,8.20
2018-04-22T16:19:29.308Z,8.63
2018-04-22T16:21:56.949Z,11.80
2018-04-22T16:24:24.572Z,8.17
2018-04-22T16:26:52.212Z,14.33
2018-04-22T16:29:19.883Z,13.40
2018-04-22T16:31:47.536Z,10.83
2018-04-22T16:34:15.146Z,17.20
2018-04-22T16:36:42.795Z,9.80
2018-04-22T16:39:10.392Z,10.63
2018-04-22T16:41:38.054Z,10.47
2018-04-22T16:44:05.654Z,9.47
2018-04-22T16:46:33.263Z,6.80
2018-04-22T16:49:00.914Z,7.77
2018-04-22T16:51:28.545Z,7.30
2018-04-22T16:53:56.178Z,5.70
2018-04-22T16:56:23.765Z,5.53
2018-04-22T16:58:51.385Z,7.60
2018-04-22T17:01:19.094Z,6.30
2018-04-22T17:03:46.726Z,7.90
2018-04-22T17:06:14.332Z,6.67
2018-04-22T17:08:42.069Z,6.27
2018-04-22T17:11:09.722Z,8.30
2018-04-22T17:13:37.374Z,7.53
2018-04-22T17:16:05.030Z,6.40
2018-04-22T17:18:32.616Z,9.63
2018-04-22T17:21:00.364Z,7.83
2018-04-22T17:23:27.968Z,6.73
2018-04-22T17:25:55.609Z,7.40
2018-04-22T17:28:23.223Z,7.00
2018-04-22T17:30:50.849Z,8.20
2018-04-22T17:33:18.486Z,5.33
2018-04-22T17:35:46.138Z,6.53
2018-04-22T17:38:13.829Z,9.03
2018-04-22T17:40:41.465Z,6.47
2018-04-22T17:43:09.096Z,9.30
2018-04-22T17:45:36.724Z,5.87
2018-04-22T17:48:04.317Z,7.40
2018-04-22T17:50:31.974Z,12.77
2018-04-22T17:52:59.660Z,8.13
2018-04-22T17:55:27.254Z,8.27
2018-04-22T17:57:54.989Z,11.20
2018-04-22T18:00:22.689Z,6.70
2018-04-22T18:02:50.346Z,6.53
2018-04-22T18:05:18.027Z,83.13
2018-04-22T18:07:45.669Z,216.27
2018-04-22T18:10:13.295Z,79.67
2018-04-22T18:12:40.957Z,226.60
2018-04-22T18:15:08.593Z,514.40
2018-04-22T18:17:36.259Z,433.63
2018-04-22T18:20:04.014Z,150.77
2018-04-22T18:22:31.714Z,93.57
2018-04-22T18:24:59.338Z,167.27
2018-04-22T18:27:26.989Z,125.60
2018-04-22T18:29:54.601Z,30.70
2018-04-22T18:32:22.206Z,10.80
2018-04-22T18:34:49.836Z,8.93
2018-04-22T18:37:17.466Z,10.80
2018-04-22T18:39:45.296Z,11.33
2018-04-22T18:42:12.893Z,10.60
2018-04-22T18:44:40.685Z,8.80
2018-04-22T18:47:08.292Z,9.70
2018-04-22T18:49:36.096Z,11.10
2018-04-22T18:52:03.696Z,13.87
2018-04-22T18:54:31.341Z,15.50
2018-04-22T18:56:58.981Z,11.47
2018-04-22T18:59:26.626Z,15.93
2018-04-22T19:01:54.253Z,9.87
2018-04-22T19:04:21.913Z,10.87
2018-04-22T19:06:49.532Z,10.83
2018-04-22T19:09:17.188Z,11.10
2018-04-22T19:11:44.807Z,9.43
2018-04-22T19:14:12.412Z,13.40
2018-04-22T19:16:40.049Z,12.50
2018-04-22T19:19:07.660Z,11.23
2018-04-22T19:21:35.530Z,13.07
2018-04-22T19:24:03.153Z,12.23
2018-04-22T19:26:30.932Z,10.83
2018-04-22T19:28:58.569Z,11.30
2018-04-22T19:31:26.211Z,13.00
2018-04-22T19:33:53.813Z,11.47
2018-04-22T19:36:21.498Z,10.83
2018-04-22T19:38:49.121Z,13.23
2018-04-22T19:41:16.782Z,13.33
2018-04-22T19:43:44.625Z,9.77
2018-04-22T19:46:12.270Z,10.80
2018-04-22T19:48:39.889Z,11.73
2018-04-22T19:51:07.494Z,12.90
2018-04-22T19:53:35.143Z,9.50
2018-04-22T19:56:02.764Z,10.10
2018-04-22T19:58:30.483Z,10.13
2018-04-22T20:00:58.116Z,10.63
2018-04-22T20:03:25.796Z,11.57
2018-04-22T20:05:53.486Z,14.03
2018-04-22T20:08:21.198Z,11.13
2018-04-22T20:10:48.803Z,10.37
2018-04-22T20:13:16.541Z,11.20
2018-04-22T20:15:44.199Z,11.47
2018-04-22T20:18:11.833Z,9.73
2018-04-22T20:20:39.480Z,11.10
2018-04-22T20:23:07.169Z,10.87
2018-04-22T20:25:34.761Z,12.20
2018-04-22T20:28:02.396Z,13.03
2018-04-22T20:30:30.032Z,12.50
2018-04-22T20:32:57.629Z,14.67
2018-04-22T20:35:25.286Z,11.10
2018-04-22T20:37:52.885Z,16.30
2018-04-22T20:40:20.557Z,129.93
2018-04-22T20:42:48.257Z,11.93
2018-04-22T20:45:15.911Z,11.83
2018-04-22T20:47:43.494Z,10.67
2018-04-22T20:50:11.148Z,12.03
2018-04-22T20:52:38.769Z,10.57
2018-04-22T20:55:06.437Z,9.73
2018-04-22T20:57:34.069Z,12.00
2018-04-22T21:00:01.715Z,10.70
2018-04-22T21:02:29.417Z,9.60
2018-04-22T21:04:57.089Z,9.87
2018-04-22T21:07:24.708Z,11.37
2018-04-22T21:09:52.353Z,10.33
2018-04-22T21:12:19.970Z,10.03
2018-04-22T21:14:47.641Z,10.47
2018-04-22T21:17:15.240Z,10.57
2018-04-22T21:19:42.896Z,13.20
2018-04-22T21:22:10.544Z,10.73
2018-04-22T21:24:38.216Z,10.40
2018-04-22T21:27:05.844Z,9.47
2018-04-22T21:29:33.467Z,10.20
2018-04-22T21:32:01.113Z,10.43
2018-04-22T21:34:28.737Z,10.50
2018-04-22T21:36:56.370Z,9.23
2018-04-22T21:39:23.968Z,10.63
2018-04-22T21:41:51.601Z,9.40
2018-04-22T21:44:19.225Z,49.97
2018-04-22T21:46:46.996Z,10.50
2018-04-22T21:49:14.606Z,10.37
2018-04-22T21:51:42.269Z,12.10
2018-04-22T21:54:09.889Z,10.73
2018-04-22T21:56:37.511Z,12.73
2018-04-22T21:59:05.186Z,10.10
2018-04-22T22:01:32.809Z,10.43
2018-04-22T22:04:00.470Z,11.20
2018-04-22T22:06:28.083Z,13.20
2018-04-22T22:08:55.741Z,12.30
2018-04-22T22:11:23.364Z,13.83
2018-04-22T22:13:51.019Z,11.47
2018-04-22T22:16:18.645Z,10.97
2018-04-22T22:18:46.376Z,11.43
2018-04-22T22:21:13.978Z,10.50
2018-04-22T22:23:41.670Z,10.00
2018-04-22T22:26:09.317Z,13.20
2018-04-22T22:28:36.931Z,11.50
2018-04-22T22:31:04.710Z,11.50
2018-04-22T22:33:32.324Z,11.27
2018-04-22T22:35:59.967Z,9.97
2018-04-22T22:38:27.563Z,10.63
2018-04-22T22:40:55.185Z,10.30
2018-04-22T22:43:22.886Z,10.90
2018-04-22T22:45:50.547Z,10.40
2018-04-22T22:48:18.152Z,10.33
2018-04-22T22:50:45.822Z,11.90
2018-04-22T22:53:13.451Z,10.07
2018-04-22T22:55:41.090Z,10.17
2018-04-22T22:58:08.720Z,9.23
2018-04-22T23:00:36.420Z,9.70
2018-04-22T23:03:04.110Z,10.83
2018-04-22T23:05:31.745Z,11.10
2018-04-22T23:07:59.469Z,13.73
2018-04-22T23:10:27.219Z,12.03
2018-04-22T23:12:54.887Z,11.27
2018-04-22T23:15:22.537Z,10.70
2018-04-22T23:17:50.194Z,14.10
2018-04-22T23:20:17.842Z,11.57
2018-04-22T23:22:45.525Z,13.93
2018-04-22T23:25:13.119Z,11.07
2018-04-22T23:27:40.787Z,9.87
2018-04-22T23:30:08.384Z,15.40
2018-04-22T23:32:36.109Z,9.83
2018-04-22T23:35:03.774Z,10.10
2018-04-22T23:37:31.393Z,9.53
2018-04-22T23:39:59.051Z,9.93
2018-04-22T23:42:26.648Z,11.03
2018-04-22T23:44:54.385Z,12.93
2018-04-22T23:47:21.991Z,8.93
2018-04-22T23:49:49.689Z,10.90
2018-04-22T23:52:17.287Z,8.20
2018-04-22T23:54:44.972Z,10.90
2018-04-22T23:57:12.674Z,7.60
2018-04-22T23:59:40.312Z,9.40
